sensor_id;sensor_type;location;lat;lon;timestamp;P1;durP1;ratioP1;P2;durP2;ratioP2
76631;SDS011;65526;48.578;-4.520;2023-09-19T00:00:34;5.20;;;1.10;;
76631;SDS011;65526;48.578;-4.520;2023-09-19T00:03:01;9.85;;;1.42;;
76631;SDS011;65526;48.578;-4.520;2023-09-19T00:05:28;7.28;;;1.42;;
76631;SDS011;65526;48.578;-4.520;2023-09-19T00:07:56;11.00;;;1.58;;
76631;SDS011;65526;48.578;-4.520;2023-09-19T00:10:33;7.72;;;1.10;;
76631;SDS011;65526;48.578;-4.520;2023-09-19T00:13:03;9.07;;;1.23;;
76631;SDS011;65526;48.578;-4.520;2023-09-19T00:15:37;12.10;;;1.63;;
76631;SDS011;65526;48.578;-4.520;2023-09-19T00:18:08;12.25;;;1.77;;
76631;SDS011;65526;48.578;-4.520;2023-09-19T00:20:35;10.00;;;1.42;;
76631;SDS011;65526;48.578;-4.520;2023-09-19T00:23:03;13.60;;;1.60;;
76631;SDS011;65526;48.578;-4.520;2023-09-19T00:25:30;5.53;;;1.38;;
76631;SDS011;65526;48.578;-4.520;2023-09-19T00:27:58;10.55;;;1.17;;
76631;SDS011;65526;48.578;-4.520;2023-09-19T00:30:24;10.10;;;1.23;;
76631;SDS011;65526;48.578;-4.520;2023-09-19T00:32:51;9.30;;;1.30;;
76631;SDS011;65526;48.578;-4.520;2023-09-19T00:35:20;11.48;;;1.50;;
76631;SDS011;65526;48.578;-4.520;2023-09-19T00:37:50;13.95;;;1.60;;
76631;SDS011;65526;48.578;-4.520;2023-09-19T00:40:16;6.97;;;1.30;;
76631;SDS011;65526;48.578;-4.520;2023-09-19T00:42:44;7.00;;;1.13;;
76631;SDS011;65526;48.578;-4.520;2023-09-19T00:45:12;7.70;;;1.58;;
76631;SDS011;65526;48.578;-4.520;2023-09-19T00:47:50;8.02;;;1.10;;
76631;SDS011;65526;48.578;-4.520;2023-09-19T00:50:22;10.32;;;1.33;;
76631;SDS011;65526;48.578;-4.520;2023-09-19T00:52:53;6.13;;;1.20;;
76631;SDS011;65526;48.578;-4.520;2023-09-19T00:55:24;9.57;;;1.15;;
76631;SDS011;65526;48.578;-4.520;2023-09-19T00:57:51;10.55;;;1.60;;
76631;SDS011;65526;48.578;-4.520;2023-09-19T01:00:18;12.43;;;1.42;;
76631;SDS011;65526;48.578;-4.520;2023-09-19T01:02:46;8.40;;;1.15;;
76631;SDS011;65526;48.578;-4.520;2023-09-19T01:05:12;6.53;;;1.30;;
76631;SDS011;65526;48.578;-4.520;2023-09-19T01:07:45;13.82;;;1.80;;
76631;SDS011;65526;48.578;-4.520;2023-09-19T01:15:50;16.80;;;1.50;;
76631;SDS011;65526;48.578;-4.520;2023-09-19T01:30:17;12.68;;;1.63;;
76631;SDS011;65526;48.578;-4.520;2023-09-19T01:32:50;17.10;;;2.00;;
76631;SDS011;65526;48.578;-4.520;2023-09-19T01:35:22;7.18;;;1.17;;
76631;SDS011;65526;48.578;-4.520;2023-09-19T01:37:48;12.27;;;1.60;;
76631;SDS011;65526;48.578;-4.520;2023-09-19T01:40:16;9.93;;;1.92;;
76631;SDS011;65526;48.578;-4.520;2023-09-19T01:42:45;8.93;;;1.27;;
76631;SDS011;65526;48.578;-4.520;2023-09-19T01:45:21;9.73;;;1.30;;
76631;SDS011;65526;48.578;-4.520;2023-09-19T01:47:56;10.93;;;1.55;;
76631;SDS011;65526;48.578;-4.520;2023-09-19T01:51:00;11.55;;;1.67;;
76631;SDS011;65526;48.578;-4.520;2023-09-19T01:56:36;8.75;;;2.05;;
76631;SDS011;65526;48.578;-4.520;2023-09-19T01:59:09;10.48;;;1.52;;
76631;SDS011;65526;48.578;-4.520;2023-09-19T02:01:42;8.38;;;1.63;;
76631;SDS011;65526;48.578;-4.520;2023-09-19T02:04:11;9.38;;;1.75;;
76631;SDS011;65526;48.578;-4.520;2023-09-19T02:06:41;9.95;;;1.30;;
76631;SDS011;65526;48.578;-4.520;2023-09-19T02:09:08;10.68;;;1.48;;
76631;SDS011;65526;48.578;-4.520;2023-09-19T02:11:35;12.48;;;1.75;;
76631;SDS011;65526;48.578;-4.520;2023-09-19T02:14:02;10.45;;;1.60;;
76631;SDS011;65526;48.578;-4.520;2023-09-19T02:16:30;11.68;;;2.00;;
76631;SDS011;65526;48.578;-4.520;2023-09-19T02:18:56;12.90;;;1.65;;
76631;SDS011;65526;48.578;-4.520;2023-09-19T02:21:23;8.88;;;1.52;;
76631;SDS011;65526;48.578;-4.520;2023-09-19T02:23:50;6.47;;;1.00;;
76631;SDS011;65526;48.578;-4.520;2023-09-19T02:26:17;13.55;;;2.00;;
76631;SDS011;65526;48.578;-4.520;2023-09-19T02:28:47;11.85;;;1.42;;
76631;SDS011;65526;48.578;-4.520;2023-09-19T02:31:13;8.25;;;1.50;;
76631;SDS011;65526;48.578;-4.520;2023-09-19T02:33:42;12.88;;;1.60;;
76631;SDS011;65526;48.578;-4.520;2023-09-19T02:36:09;7.70;;;1.40;;
76631;SDS011;65526;48.578;-4.520;2023-09-19T02:38:36;8.25;;;1.92;;
76631;SDS011;65526;48.578;-4.520;2023-09-19T02:41:03;8.20;;;1.55;;
76631;SDS011;65526;48.578;-4.520;2023-09-19T02:43:30;14.35;;;1.63;;
76631;SDS011;65526;48.578;-4.520;2023-09-19T02:45:56;8.05;;;1.45;;
76631;SDS011;65526;48.578;-4.520;2023-09-19T02:48:23;8.95;;;1.50;;
76631;SDS011;65526;48.578;-4.520;2023-09-19T02:50:51;14.90;;;2.83;;
76631;SDS011;65526;48.578;-4.520;2023-09-19T02:53:18;8.13;;;1.50;;
76631;SDS011;65526;48.578;-4.520;2023-09-19T02:55:45;9.43;;;1.33;;
76631;SDS011;65526;48.578;-4.520;2023-09-19T02:58:13;8.77;;;1.55;;
76631;SDS011;65526;48.578;-4.520;2023-09-19T03:00:40;9.65;;;1.80;;
76631;SDS011;65526;48.578;-4.520;2023-09-19T03:03:08;16.08;;;1.92;;
76631;SDS011;65526;48.578;-4.520;2023-09-19T03:05:35;9.02;;;1.33;;
76631;SDS011;65526;48.578;-4.520;2023-09-19T03:08:04;8.73;;;2.08;;
76631;SDS011;65526;48.578;-4.520;2023-09-19T03:10:31;14.00;;;1.80;;
76631;SDS011;65526;48.578;-4.520;2023-09-19T03:12:58;7.57;;;1.65;;
76631;SDS011;65526;48.578;-4.520;2023-09-19T03:15:26;11.23;;;1.30;;
76631;SDS011;65526;48.578;-4.520;2023-09-19T03:17:53;15.52;;;2.08;;
76631;SDS011;65526;48.578;-4.520;2023-09-19T03:20:22;14.13;;;2.08;;
76631;SDS011;65526;48.578;-4.520;2023-09-19T03:22:49;8.70;;;1.67;;
76631;SDS011;65526;48.578;-4.520;2023-09-19T03:25:16;9.65;;;1.90;;
76631;SDS011;65526;48.578;-4.520;2023-09-19T03:27:46;10.00;;;1.52;;
76631;SDS011;65526;48.578;-4.520;2023-09-19T03:30:14;8.77;;;1.50;;
76631;SDS011;65526;48.578;-4.520;2023-09-19T03:32:45;13.65;;;1.83;;
76631;SDS011;65526;48.578;-4.520;2023-09-19T03:35:13;12.90;;;1.73;;
76631;SDS011;65526;48.578;-4.520;2023-09-19T03:37:41;12.48;;;1.63;;
76631;SDS011;65526;48.578;-4.520;2023-09-19T03:40:09;11.60;;;1.55;;
76631;SDS011;65526;48.578;-4.520;2023-09-19T03:42:40;13.05;;;2.15;;
76631;SDS011;65526;48.578;-4.520;2023-09-19T03:45:09;10.70;;;1.63;;
76631;SDS011;65526;48.578;-4.520;2023-09-19T03:47:41;12.70;;;2.28;;
76631;SDS011;65526;48.578;-4.520;2023-09-19T03:50:10;14.05;;;2.13;;
76631;SDS011;65526;48.578;-4.520;2023-09-19T03:52:44;11.75;;;1.80;;
76631;SDS011;65526;48.578;-4.520;2023-09-19T03:55:10;14.80;;;2.45;;
76631;SDS011;65526;48.578;-4.520;2023-09-19T03:57:38;10.90;;;2.00;;
76631;SDS011;65526;48.578;-4.520;2023-09-19T04:00:09;12.73;;;1.65;;
76631;SDS011;65526;48.578;-4.520;2023-09-19T04:02:41;11.75;;;1.73;;
76631;SDS011;65526;48.578;-4.520;2023-09-19T04:05:07;12.77;;;1.88;;
76631;SDS011;65526;48.578;-4.520;2023-09-19T04:07:35;10.13;;;1.67;;
76631;SDS011;65526;48.578;-4.520;2023-09-19T04:10:02;11.23;;;2.17;;
76631;SDS011;65526;48.578;-4.520;2023-09-19T04:12:29;14.32;;;1.80;;
76631;SDS011;65526;48.578;-4.520;2023-09-19T04:14:55;9.27;;;1.65;;
76631;SDS011;65526;48.578;-4.520;2023-09-19T04:17:22;10.75;;;1.80;;
76631;SDS011;65526;48.578;-4.520;2023-09-19T04:19:50;11.27;;;1.98;;
76631;SDS011;65526;48.578;-4.520;2023-09-19T04:22:16;10.75;;;2.58;;
76631;SDS011;65526;48.578;-4.520;2023-09-19T04:24:43;14.77;;;2.25;;
76631;SDS011;65526;48.578;-4.520;2023-09-19T04:27:10;10.18;;;2.00;;
76631;SDS011;65526;48.578;-4.520;2023-09-19T04:29:38;15.52;;;2.05;;
76631;SDS011;65526;48.578;-4.520;2023-09-19T04:32:05;6.70;;;1.20;;
76631;SDS011;65526;48.578;-4.520;2023-09-19T04:34:32;9.63;;;1.60;;
76631;SDS011;65526;48.578;-4.520;2023-09-19T04:37:00;14.73;;;2.08;;
76631;SDS011;65526;48.578;-4.520;2023-09-19T04:39:28;13.55;;;1.90;;
76631;SDS011;65526;48.578;-4.520;2023-09-19T04:41:54;17.58;;;1.90;;
76631;SDS011;65526;48.578;-4.520;2023-09-19T04:44:21;19.42;;;1.98;;
76631;SDS011;65526;48.578;-4.520;2023-09-19T04:46:48;13.02;;;1.48;;
76631;SDS011;65526;48.578;-4.520;2023-09-19T04:49:14;14.93;;;2.35;;
76631;SDS011;65526;48.578;-4.520;2023-09-19T04:51:41;14.88;;;2.50;;
76631;SDS011;65526;48.578;-4.520;2023-09-19T04:54:08;12.20;;;2.20;;
76631;SDS011;65526;48.578;-4.520;2023-09-19T04:56:35;16.25;;;2.13;;
76631;SDS011;65526;48.578;-4.520;2023-09-19T04:59:01;15.57;;;2.53;;
76631;SDS011;65526;48.578;-4.520;2023-09-19T05:01:28;12.68;;;2.28;;
76631;SDS011;65526;48.578;-4.520;2023-09-19T05:03:55;13.35;;;2.60;;
76631;SDS011;65526;48.578;-4.520;2023-09-19T05:06:21;14.55;;;2.75;;
76631;SDS011;65526;48.578;-4.520;2023-09-19T05:08:48;10.55;;;1.85;;
76631;SDS011;65526;48.578;-4.520;2023-09-19T05:11:18;17.98;;;2.63;;
76631;SDS011;65526;48.578;-4.520;2023-09-19T05:13:50;12.65;;;2.10;;
76631;SDS011;65526;48.578;-4.520;2023-09-19T05:16:18;10.18;;;1.70;;
76631;SDS011;65526;48.578;-4.520;2023-09-19T05:18:45;13.75;;;2.05;;
76631;SDS011;65526;48.578;-4.520;2023-09-19T05:21:12;15.40;;;2.47;;
76631;SDS011;65526;48.578;-4.520;2023-09-19T05:23:39;13.15;;;2.00;;
76631;SDS011;65526;48.578;-4.520;2023-09-19T05:26:05;17.27;;;2.70;;
76631;SDS011;65526;48.578;-4.520;2023-09-19T05:28:32;18.05;;;2.08;;
76631;SDS011;65526;48.578;-4.520;2023-09-19T05:31:03;14.93;;;2.38;;
76631;SDS011;65526;48.578;-4.520;2023-09-19T05:33:31;13.02;;;2.28;;
76631;SDS011;65526;48.578;-4.520;2023-09-19T05:36:01;14.50;;;2.30;;
76631;SDS011;65526;48.578;-4.520;2023-09-19T05:38:27;15.98;;;2.47;;
76631;SDS011;65526;48.578;-4.520;2023-09-19T05:40:53;12.70;;;2.08;;
76631;SDS011;65526;48.578;-4.520;2023-09-19T05:43:20;13.38;;;2.20;;
76631;SDS011;65526;48.578;-4.520;2023-09-19T05:45:47;14.02;;;2.30;;
76631;SDS011;65526;48.578;-4.520;2023-09-19T05:48:14;16.45;;;2.53;;
76631;SDS011;65526;48.578;-4.520;2023-09-19T05:50:41;16.63;;;2.80;;
76631;SDS011;65526;48.578;-4.520;2023-09-19T05:53:09;23.67;;;3.17;;
76631;SDS011;65526;48.578;-4.520;2023-09-19T05:55:38;21.48;;;3.33;;
76631;SDS011;65526;48.578;-4.520;2023-09-19T05:58:05;21.40;;;2.65;;
76631;SDS011;65526;48.578;-4.520;2023-09-19T06:00:31;15.55;;;2.55;;
76631;SDS011;65526;48.578;-4.520;2023-09-19T06:02:58;19.83;;;2.35;;
76631;SDS011;65526;48.578;-4.520;2023-09-19T06:05:26;18.83;;;3.10;;
76631;SDS011;65526;48.578;-4.520;2023-09-19T06:07:53;15.35;;;2.70;;
76631;SDS011;65526;48.578;-4.520;2023-09-19T06:10:20;13.50;;;2.58;;
76631;SDS011;65526;48.578;-4.520;2023-09-19T06:12:48;17.20;;;2.60;;
76631;SDS011;65526;48.578;-4.520;2023-09-19T06:15:15;21.35;;;3.10;;
76631;SDS011;65526;48.578;-4.520;2023-09-19T06:17:48;23.70;;;3.15;;
76631;SDS011;65526;48.578;-4.520;2023-09-19T06:20:16;20.42;;;2.97;;
76631;SDS011;65526;48.578;-4.520;2023-09-19T06:22:44;19.90;;;3.58;;
76631;SDS011;65526;48.578;-4.520;2023-09-19T06:25:11;23.35;;;3.47;;
76631;SDS011;65526;48.578;-4.520;2023-09-19T06:27:45;20.65;;;3.30;;
76631;SDS011;65526;48.578;-4.520;2023-09-19T06:30:18;24.25;;;3.03;;
76631;SDS011;65526;48.578;-4.520;2023-09-19T06:32:44;17.85;;;2.70;;
76631;SDS011;65526;48.578;-4.520;2023-09-19T06:35:12;17.10;;;2.92;;
76631;SDS011;65526;48.578;-4.520;2023-09-19T06:37:39;14.13;;;2.92;;
76631;SDS011;65526;48.578;-4.520;2023-09-19T06:40:11;21.63;;;3.63;;
76631;SDS011;65526;48.578;-4.520;2023-09-19T06:42:42;20.55;;;3.63;;
76631;SDS011;65526;48.578;-4.520;2023-09-19T06:45:14;21.20;;;3.53;;
76631;SDS011;65526;48.578;-4.520;2023-09-19T06:47:45;20.40;;;3.85;;
76631;SDS011;65526;48.578;-4.520;2023-09-19T06:50:15;20.23;;;3.58;;
76631;SDS011;65526;48.578;-4.520;2023-09-19T06:52:52;27.10;;;4.25;;
76631;SDS011;65526;48.578;-4.520;2023-09-19T06:55:21;15.95;;;3.55;;
76631;SDS011;65526;48.578;-4.520;2023-09-19T06:57:50;25.13;;;3.90;;
76631;SDS011;65526;48.578;-4.520;2023-09-19T07:00:17;14.32;;;3.00;;
76631;SDS011;65526;48.578;-4.520;2023-09-19T07:05:23;26.77;;;4.28;;
76631;SDS011;65526;48.578;-4.520;2023-09-19T07:07:53;19.75;;;4.20;;
76631;SDS011;65526;48.578;-4.520;2023-09-19T07:10:25;15.13;;;3.80;;
76631;SDS011;65526;48.578;-4.520;2023-09-19T07:12:54;18.17;;;3.80;;
76631;SDS011;65526;48.578;-4.520;2023-09-19T07:15:23;23.73;;;3.60;;
76631;SDS011;65526;48.578;-4.520;2023-09-19T07:17:51;18.60;;;3.22;;
76631;SDS011;65526;48.578;-4.520;2023-09-19T07:20:22;19.00;;;4.43;;
76631;SDS011;65526;48.578;-4.520;2023-09-19T07:22:52;18.90;;;4.18;;
76631;SDS011;65526;48.578;-4.520;2023-09-19T07:25:21;25.63;;;3.53;;
76631;SDS011;65526;48.578;-4.520;2023-09-19T07:27:47;22.30;;;3.83;;
76631;SDS011;65526;48.578;-4.520;2023-09-19T07:30:14;14.63;;;3.47;;
76631;SDS011;65526;48.578;-4.520;2023-09-19T07:32:42;19.85;;;3.92;;
76631;SDS011;65526;48.578;-4.520;2023-09-19T07:35:08;21.83;;;3.60;;
76631;SDS011;65526;48.578;-4.520;2023-09-19T07:37:35;20.63;;;3.42;;
76631;SDS011;65526;48.578;-4.520;2023-09-19T07:40:02;19.80;;;3.53;;
76631;SDS011;65526;48.578;-4.520;2023-09-19T07:42:33;24.55;;;4.43;;
76631;SDS011;65526;48.578;-4.520;2023-09-19T07:45:01;23.10;;;4.10;;
76631;SDS011;65526;48.578;-4.520;2023-09-19T07:47:27;20.15;;;3.90;;
76631;SDS011;65526;48.578;-4.520;2023-09-19T07:50:00;15.68;;;3.65;;
76631;SDS011;65526;48.578;-4.520;2023-09-19T07:52:29;17.63;;;3.33;;
76631;SDS011;65526;48.578;-4.520;2023-09-19T07:54:55;19.08;;;3.50;;
76631;SDS011;65526;48.578;-4.520;2023-09-19T07:57:23;20.23;;;3.55;;
76631;SDS011;65526;48.578;-4.520;2023-09-19T07:59:50;17.27;;;4.00;;
76631;SDS011;65526;48.578;-4.520;2023-09-19T08:02:17;18.60;;;3.58;;
76631;SDS011;65526;48.578;-4.520;2023-09-19T08:04:44;20.88;;;3.75;;
76631;SDS011;65526;48.578;-4.520;2023-09-19T08:07:14;20.17;;;3.53;;
76631;SDS011;65526;48.578;-4.520;2023-09-19T08:09:41;18.42;;;3.55;;
76631;SDS011;65526;48.578;-4.520;2023-09-19T08:12:12;16.35;;;3.50;;
76631;SDS011;65526;48.578;-4.520;2023-09-19T08:14:38;26.50;;;3.95;;
76631;SDS011;65526;48.578;-4.520;2023-09-19T08:17:07;24.80;;;4.72;;
76631;SDS011;65526;48.578;-4.520;2023-09-19T08:19:37;19.98;;;3.95;;
76631;SDS011;65526;48.578;-4.520;2023-09-19T08:22:07;23.15;;;4.47;;
76631;SDS011;65526;48.578;-4.520;2023-09-19T08:24:36;19.73;;;3.70;;
76631;SDS011;65526;48.578;-4.520;2023-09-19T08:27:03;22.65;;;4.45;;
76631;SDS011;65526;48.578;-4.520;2023-09-19T08:29:31;19.45;;;3.88;;
76631;SDS011;65526;48.578;-4.520;2023-09-19T08:31:58;21.55;;;3.80;;
76631;SDS011;65526;48.578;-4.520;2023-09-19T08:34:25;23.83;;;4.05;;
76631;SDS011;65526;48.578;-4.520;2023-09-19T08:36:52;13.75;;;3.30;;
76631;SDS011;65526;48.578;-4.520;2023-09-19T08:39:24;28.25;;;5.13;;
76631;SDS011;65526;48.578;-4.520;2023-09-19T08:41:57;24.77;;;4.47;;
76631;SDS011;65526;48.578;-4.520;2023-09-19T08:44:27;30.17;;;4.28;;
76631;SDS011;65526;48.578;-4.520;2023-09-19T08:47:00;20.70;;;4.30;;
76631;SDS011;65526;48.578;-4.520;2023-09-19T08:52:48;25.05;;;3.97;;
76631;SDS011;65526;48.578;-4.520;2023-09-19T08:55:23;18.67;;;4.30;;
76631;SDS011;65526;48.578;-4.520;2023-09-19T08:58:00;28.48;;;4.85;;
76631;SDS011;65526;48.578;-4.520;2023-09-19T09:00:30;20.67;;;4.05;;
76631;SDS011;65526;48.578;-4.520;2023-09-19T09:02:58;23.10;;;4.78;;
76631;SDS011;65526;48.578;-4.520;2023-09-19T09:05:26;25.70;;;4.90;;
76631;SDS011;65526;48.578;-4.520;2023-09-19T09:07:54;23.88;;;3.90;;
76631;SDS011;65526;48.578;-4.520;2023-09-19T09:10:22;23.58;;;4.47;;
76631;SDS011;65526;48.578;-4.520;2023-09-19T09:12:52;24.13;;;4.57;;
76631;SDS011;65526;48.578;-4.520;2023-09-19T09:15:23;22.50;;;4.57;;
76631;SDS011;65526;48.578;-4.520;2023-09-19T09:17:50;30.27;;;5.18;;
76631;SDS011;65526;48.578;-4.520;2023-09-19T09:20:19;21.50;;;4.63;;
76631;SDS011;65526;48.578;-4.520;2023-09-19T09:22:52;27.35;;;4.78;;
76631;SDS011;65526;48.578;-4.520;2023-09-19T09:25:20;20.13;;;3.90;;
76631;SDS011;65526;48.578;-4.520;2023-09-19T09:28:00;25.83;;;4.95;;
76631;SDS011;65526;48.578;-4.520;2023-09-19T09:30:36;23.02;;;5.35;;
76631;SDS011;65526;48.578;-4.520;2023-09-19T09:33:10;22.52;;;4.35;;
76631;SDS011;65526;48.578;-4.520;2023-09-19T09:35:55;23.42;;;4.80;;
76631;SDS011;65526;48.578;-4.520;2023-09-19T09:38:26;22.25;;;4.68;;
76631;SDS011;65526;48.578;-4.520;2023-09-19T09:40:54;25.38;;;4.35;;
76631;SDS011;65526;48.578;-4.520;2023-09-19T09:43:33;20.08;;;5.07;;
76631;SDS011;65526;48.578;-4.520;2023-09-19T09:46:12;16.60;;;3.97;;
76631;SDS011;65526;48.578;-4.520;2023-09-19T09:51:34;27.67;;;4.50;;
76631;SDS011;65526;48.578;-4.520;2023-09-19T09:54:14;23.33;;;4.28;;
76631;SDS011;65526;48.578;-4.520;2023-09-19T09:56:52;27.30;;;4.90;;
76631;SDS011;65526;48.578;-4.520;2023-09-19T09:59:23;22.98;;;4.65;;
76631;SDS011;65526;48.578;-4.520;2023-09-19T10:02:09;28.58;;;4.95;;
76631;SDS011;65526;48.578;-4.520;2023-09-19T10:04:39;22.20;;;4.80;;
76631;SDS011;65526;48.578;-4.520;2023-09-19T10:07:24;24.95;;;4.72;;
76631;SDS011;65526;48.578;-4.520;2023-09-19T10:09:59;20.55;;;3.92;;
76631;SDS011;65526;48.578;-4.520;2023-09-19T10:12:31;26.95;;;5.45;;
76631;SDS011;65526;48.578;-4.520;2023-09-19T10:15:04;22.55;;;5.00;;
76631;SDS011;65526;48.578;-4.520;2023-09-19T10:17:34;24.85;;;5.40;;
76631;SDS011;65526;48.578;-4.520;2023-09-19T10:22:45;19.50;;;4.25;;
76631;SDS011;65526;48.578;-4.520;2023-09-19T10:25:25;26.15;;;4.60;;
76631;SDS011;65526;48.578;-4.520;2023-09-19T10:27:54;26.92;;;5.25;;
76631;SDS011;65526;48.578;-4.520;2023-09-19T10:30:23;33.58;;;5.90;;
76631;SDS011;65526;48.578;-4.520;2023-09-19T10:32:55;21.40;;;4.68;;
76631;SDS011;65526;48.578;-4.520;2023-09-19T10:35:31;25.23;;;5.63;;
76631;SDS011;65526;48.578;-4.520;2023-09-19T10:38:02;27.77;;;6.03;;
76631;SDS011;65526;48.578;-4.520;2023-09-19T10:40:32;29.02;;;5.90;;
76631;SDS011;65526;48.578;-4.520;2023-09-19T10:43:00;20.50;;;5.07;;
76631;SDS011;65526;48.578;-4.520;2023-09-19T10:45:30;29.83;;;5.32;;
76631;SDS011;65526;48.578;-4.520;2023-09-19T10:47:57;25.25;;;5.18;;
76631;SDS011;65526;48.578;-4.520;2023-09-19T10:50:25;28.33;;;4.95;;
76631;SDS011;65526;48.578;-4.520;2023-09-19T10:52:59;29.42;;;5.25;;
76631;SDS011;65526;48.578;-4.520;2023-09-19T10:55:31;27.70;;;5.45;;
76631;SDS011;65526;48.578;-4.520;2023-09-19T10:57:58;24.63;;;5.57;;
76631;SDS011;65526;48.578;-4.520;2023-09-19T11:00:26;21.83;;;5.15;;
76631;SDS011;65526;48.578;-4.520;2023-09-19T11:05:35;23.58;;;6.43;;
76631;SDS011;65526;48.578;-4.520;2023-09-19T11:08:10;25.67;;;5.75;;
76631;SDS011;65526;48.578;-4.520;2023-09-19T11:10:48;26.75;;;5.43;;
76631;SDS011;65526;48.578;-4.520;2023-09-19T11:13:34;26.92;;;5.38;;
76631;SDS011;65526;48.578;-4.520;2023-09-19T11:16:03;22.25;;;5.15;;
76631;SDS011;65526;48.578;-4.520;2023-09-19T11:26:48;28.52;;;5.97;;
76631;SDS011;65526;48.578;-4.520;2023-09-19T11:29:24;26.33;;;5.20;;
76631;SDS011;65526;48.578;-4.520;2023-09-19T11:31:52;26.63;;;5.45;;
76631;SDS011;65526;48.578;-4.520;2023-09-19T11:34:40;28.45;;;5.28;;
76631;SDS011;65526;48.578;-4.520;2023-09-19T11:39:40;23.88;;;5.22;;
76631;SDS011;65526;48.578;-4.520;2023-09-19T11:42:45;22.65;;;5.40;;
76631;SDS011;65526;48.578;-4.520;2023-09-19T11:46:00;27.63;;;5.45;;
76631;SDS011;65526;48.578;-4.520;2023-09-19T11:48:23;34.30;;;6.57;;
76631;SDS011;65526;48.578;-4.520;2023-09-19T11:50:53;34.13;;;5.57;;
76631;SDS011;65526;48.578;-4.520;2023-09-19T11:53:22;25.10;;;5.65;;
76631;SDS011;65526;48.578;-4.520;2023-09-19T11:55:50;24.70;;;5.38;;
76631;SDS011;65526;48.578;-4.520;2023-09-19T11:58:18;22.75;;;5.43;;
76631;SDS011;65526;48.578;-4.520;2023-09-19T12:00:45;23.42;;;5.30;;
76631;SDS011;65526;48.578;-4.520;2023-09-19T12:03:21;21.80;;;4.60;;
76631;SDS011;65526;48.578;-4.520;2023-09-19T12:05:48;30.92;;;4.90;;
76631;SDS011;65526;48.578;-4.520;2023-09-19T12:08:15;27.85;;;4.80;;
76631;SDS011;65526;48.578;-4.520;2023-09-19T12:10:47;23.52;;;5.05;;
76631;SDS011;65526;48.578;-4.520;2023-09-19T12:13:16;19.60;;;4.70;;
76631;SDS011;65526;48.578;-4.520;2023-09-19T12:15:46;26.55;;;4.32;;
76631;SDS011;65526;48.578;-4.520;2023-09-19T12:18:29;20.13;;;4.07;;
76631;SDS011;65526;48.578;-4.520;2023-09-19T12:20:56;22.73;;;4.25;;
76631;SDS011;65526;48.578;-4.520;2023-09-19T12:23:37;22.42;;;4.07;;
76631;SDS011;65526;48.578;-4.520;2023-09-19T12:26:07;20.00;;;5.13;;
76631;SDS011;65526;48.578;-4.520;2023-09-19T12:28:41;24.80;;;4.85;;
76631;SDS011;65526;48.578;-4.520;2023-09-19T12:31:11;21.92;;;4.43;;
76631;SDS011;65526;48.578;-4.520;2023-09-19T12:33:38;30.20;;;4.63;;
76631;SDS011;65526;48.578;-4.520;2023-09-19T12:36:19;21.55;;;5.47;;
76631;SDS011;65526;48.578;-4.520;2023-09-19T12:38:51;23.38;;;4.97;;
76631;SDS011;65526;48.578;-4.520;2023-09-19T12:41:19;25.88;;;5.50;;
76631;SDS011;65526;48.578;-4.520;2023-09-19T12:43:47;30.45;;;5.40;;
76631;SDS011;65526;48.578;-4.520;2023-09-19T12:46:14;23.05;;;6.05;;
76631;SDS011;65526;48.578;-4.520;2023-09-19T12:48:41;28.73;;;5.07;;
76631;SDS011;65526;48.578;-4.520;2023-09-19T12:51:10;25.88;;;4.93;;
76631;SDS011;65526;48.578;-4.520;2023-09-19T12:53:43;22.70;;;4.72;;
76631;SDS011;65526;48.578;-4.520;2023-09-19T12:58:48;23.80;;;3.95;;
76631;SDS011;65526;48.578;-4.520;2023-09-19T13:01:29;21.00;;;3.63;;
76631;SDS011;65526;48.578;-4.520;2023-09-19T13:04:11;21.17;;;4.45;;
76631;SDS011;65526;48.578;-4.520;2023-09-19T13:06:55;19.88;;;3.85;;
76631;SDS011;65526;48.578;-4.520;2023-09-19T13:09:26;23.48;;;4.97;;
76631;SDS011;65526;48.578;-4.520;2023-09-19T13:12:34;26.83;;;5.55;;
76631;SDS011;65526;48.578;-4.520;2023-09-19T13:15:08;23.30;;;5.07;;
76631;SDS011;65526;48.578;-4.520;2023-09-19T13:17:56;36.25;;;5.78;;
76631;SDS011;65526;48.578;-4.520;2023-09-19T13:20:26;25.20;;;5.03;;
76631;SDS011;65526;48.578;-4.520;2023-09-19T13:22:53;26.00;;;5.47;;
76631;SDS011;65526;48.578;-4.520;2023-09-19T13:25:24;20.00;;;4.45;;
76631;SDS011;65526;48.578;-4.520;2023-09-19T13:27:56;22.63;;;4.50;;
76631;SDS011;65526;48.578;-4.520;2023-09-19T13:30:24;22.38;;;4.75;;
76631;SDS011;65526;48.578;-4.520;2023-09-19T13:32:52;19.40;;;5.35;;
76631;SDS011;65526;48.578;-4.520;2023-09-19T13:35:31;14.45;;;4.47;;
76631;SDS011;65526;48.578;-4.520;2023-09-19T13:37:58;23.83;;;4.53;;
76631;SDS011;65526;48.578;-4.520;2023-09-19T13:40:25;24.60;;;5.32;;
76631;SDS011;65526;48.578;-4.520;2023-09-19T13:42:56;19.95;;;4.07;;
76631;SDS011;65526;48.578;-4.520;2023-09-19T13:45:22;19.98;;;4.63;;
76631;SDS011;65526;48.578;-4.520;2023-09-19T13:47:50;23.25;;;4.85;;
76631;SDS011;65526;48.578;-4.520;2023-09-19T13:50:17;23.45;;;5.28;;
76631;SDS011;65526;48.578;-4.520;2023-09-19T13:52:50;18.48;;;3.88;;
76631;SDS011;65526;48.578;-4.520;2023-09-19T13:55:17;27.80;;;5.10;;
76631;SDS011;65526;48.578;-4.520;2023-09-19T13:57:49;24.77;;;4.65;;
76631;SDS011;65526;48.578;-4.520;2023-09-19T14:00:16;19.98;;;4.55;;
76631;SDS011;65526;48.578;-4.520;2023-09-19T14:02:43;21.05;;;4.25;;
76631;SDS011;65526;48.578;-4.520;2023-09-19T14:05:15;14.40;;;3.50;;
76631;SDS011;65526;48.578;-4.520;2023-09-19T14:07:42;18.05;;;3.65;;
76631;SDS011;65526;48.578;-4.520;2023-09-19T14:10:10;16.13;;;3.55;;
76631;SDS011;65526;48.578;-4.520;2023-09-19T14:12:37;16.20;;;3.25;;
76631;SDS011;65526;48.578;-4.520;2023-09-19T14:15:07;15.57;;;4.45;;
76631;SDS011;65526;48.578;-4.520;2023-09-19T14:17:34;17.60;;;3.58;;
76631;SDS011;65526;48.578;-4.520;2023-09-19T14:20:00;17.85;;;3.75;;
76631;SDS011;65526;48.578;-4.520;2023-09-19T14:22:27;17.05;;;4.22;;
76631;SDS011;65526;48.578;-4.520;2023-09-19T14:24:53;16.35;;;3.35;;
76631;SDS011;65526;48.578;-4.520;2023-09-19T14:27:20;16.95;;;4.45;;
76631;SDS011;65526;48.578;-4.520;2023-09-19T14:29:47;17.67;;;4.28;;
76631;SDS011;65526;48.578;-4.520;2023-09-19T14:32:13;15.32;;;4.85;;
76631;SDS011;65526;48.578;-4.520;2023-09-19T14:34:40;16.92;;;4.57;;
76631;SDS011;65526;48.578;-4.520;2023-09-19T14:37:08;17.55;;;4.43;;
76631;SDS011;65526;48.578;-4.520;2023-09-19T14:39:35;16.00;;;3.78;;
76631;SDS011;65526;48.578;-4.520;2023-09-19T14:42:02;17.15;;;3.58;;
76631;SDS011;65526;48.578;-4.520;2023-09-19T14:44:29;16.67;;;4.10;;
76631;SDS011;65526;48.578;-4.520;2023-09-19T14:46:55;12.52;;;3.80;;
76631;SDS011;65526;48.578;-4.520;2023-09-19T14:49:21;14.90;;;3.17;;
76631;SDS011;65526;48.578;-4.520;2023-09-19T14:51:48;11.93;;;3.00;;
76631;SDS011;65526;48.578;-4.520;2023-09-19T14:54:15;11.45;;;2.85;;
76631;SDS011;65526;48.578;-4.520;2023-09-19T14:56:45;11.23;;;2.67;;
76631;SDS011;65526;48.578;-4.520;2023-09-19T14:59:11;13.38;;;3.28;;
76631;SDS011;65526;48.578;-4.520;2023-09-19T15:01:38;13.25;;;3.22;;
76631;SDS011;65526;48.578;-4.520;2023-09-19T15:04:05;10.38;;;2.63;;
76631;SDS011;65526;48.578;-4.520;2023-09-19T15:06:38;9.10;;;3.75;;
76631;SDS011;65526;48.578;-4.520;2023-09-19T15:09:04;18.23;;;3.40;;
76631;SDS011;65526;48.578;-4.520;2023-09-19T15:11:33;16.27;;;3.17;;
76631;SDS011;65526;48.578;-4.520;2023-09-19T15:13:59;16.80;;;3.25;;
76631;SDS011;65526;48.578;-4.520;2023-09-19T15:16:26;18.67;;;3.28;;
76631;SDS011;65526;48.578;-4.520;2023-09-19T15:18:53;13.95;;;3.20;;
76631;SDS011;65526;48.578;-4.520;2023-09-19T15:21:21;14.90;;;3.60;;
76631;SDS011;65526;48.578;-4.520;2023-09-19T15:23:47;8.60;;;3.22;;
76631;SDS011;65526;48.578;-4.520;2023-09-19T15:26:14;16.65;;;3.08;;